Browntown, Wisconsin
Current Conditions -  °F | °C
As of 11:35 AM on Tuesday 21 Oct 2014 (Local Time) from KEFT Reporting Station
Broken Clouds Broken Clouds  
Wind Chill: 41°   Ceiling: 2400
Heat Index: 46°   Visibility: 10mi
Dew Point: 37°   Wind: 13mph
Humidity: 71%   Direction: 10°N
Pressure: 30.21"   Gusts: 17mph
Location:  42.58°N, 89.79°W
Report Text: KEFT 211635Z AUTO 01011G15KT 10SM BKN024 08/03 A3021 RMK AO2
Loading
Personal Weather Stations






























Interactive Weather Map
Tropical Storm Tracking
New forecast layout! Learn more

10-Day Weather Forecast

Advertisements
Track Severe Weather on mobile